sensor_id;sensor_type;location;lat;lon;timestamp;pressure;altitude;pressure_sealevel;temperature;humidity
27712;BME280;2377;51.734;8.950;2023-02-12T00:00:49;99816.34;;;7.26;100.00
27712;BME280;2377;51.734;8.950;2023-02-12T00:03:18;99812.41;;;7.31;100.00
27712;BME280;2377;51.734;8.950;2023-02-12T00:05:44;99818.84;;;7.35;100.00
27712;BME280;2377;51.734;8.950;2023-02-12T00:08:11;99815.78;;;7.32;100.00
27712;BME280;2377;51.734;8.950;2023-02-12T00:10:42;99829.59;;;7.29;100.00
27712;BME280;2377;51.734;8.950;2023-02-12T00:13:09;99819.25;;;7.31;100.00
27712;BME280;2377;51.734;8.950;2023-02-12T00:15:38;99819.94;;;7.33;100.00
27712;BME280;2377;51.734;8.950;2023-02-12T00:18:05;99818.19;;;7.33;100.00
27712;BME280;2377;51.734;8.950;2023-02-12T00:20:32;99820.06;;;7.31;100.00
27712;BME280;2377;51.734;8.950;2023-02-12T00:22:59;99827.94;;;7.38;100.00
27712;BME280;2377;51.734;8.950;2023-02-12T00:25:26;99816.59;;;7.32;100.00
27712;BME280;2377;51.734;8.950;2023-02-12T00:27:54;99824.22;;;7.32;100.00
27712;BME280;2377;51.734;8.950;2023-02-12T00:30:21;99822.75;;;7.30;100.00
27712;BME280;2377;51.734;8.950;2023-02-12T00:32:48;99825.53;;;7.36;100.00
27712;BME280;2377;51.734;8.950;2023-02-12T00:35:15;99823.78;;;7.37;100.00
27712;BME280;2377;51.734;8.950;2023-02-12T00:37:42;99817.75;;;7.38;100.00
27712;BME280;2377;51.734;8.950;2023-02-12T00:40:10;99807.75;;;7.36;100.00
27712;BME280;2377;51.734;8.950;2023-02-12T00:42:37;99811.63;;;7.31;100.00
27712;BME280;2377;51.734;8.950;2023-02-12T00:45:07;99806.97;;;7.26;100.00
27712;BME280;2377;51.734;8.950;2023-02-12T00:47:34;99812.41;;;7.31;100.00
27712;BME280;2377;51.734;8.950;2023-02-12T00:50:01;99819.94;;;7.33;100.00
27712;BME280;2377;51.734;8.950;2023-02-12T00:52:28;99826.88;;;7.31;100.00
27712;BME280;2377;51.734;8.950;2023-02-12T00:54:55;99822.47;;;7.33;100.00
27712;BME280;2377;51.734;8.950;2023-02-12T00:57:22;99818.47;;;7.30;100.00
27712;BME280;2377;51.734;8.950;2023-02-12T00:59:49;99831.28;;;7.38;100.00
27712;BME280;2377;51.734;8.950;2023-02-12T01:02:17;99828.63;;;7.30;100.00
27712;BME280;2377;51.734;8.950;2023-02-12T01:04:44;99828.50;;;7.32;100.00
27712;BME280;2377;51.734;8.950;2023-02-12T01:07:47;99830.22;;;7.31;100.00
27712;BME280;2377;51.734;8.950;2023-02-12T01:10:14;99840.28;;;7.33;100.00
27712;BME280;2377;51.734;8.950;2023-02-12T01:12:42;99841.47;;;7.38;100.00
27712;BME280;2377;51.734;8.950;2023-02-12T01:15:11;99847.34;;;7.39;100.00
27712;BME280;2377;51.734;8.950;2023-02-12T01:17:39;99847.34;;;7.39;100.00
27712;BME280;2377;51.734;8.950;2023-02-12T01:20:10;99849.25;;;7.37;100.00
27712;BME280;2377;51.734;8.950;2023-02-12T01:22:38;99846.81;;;7.35;100.00
27712;BME280;2377;51.734;8.950;2023-02-12T01:25:06;99848.44;;;7.36;100.00
27712;BME280;2377;51.734;8.950;2023-02-12T01:27:34;99844.94;;;7.37;100.00
27712;BME280;2377;51.734;8.950;2023-02-12T01:30:02;99851.66;;;7.38;100.00
27712;BME280;2377;51.734;8.950;2023-02-12T01:32:29;99854.56;;;7.44;100.00
27712;BME280;2377;51.734;8.950;2023-02-12T01:34:57;99849.63;;;7.42;100.00
27712;BME280;2377;51.734;8.950;2023-02-12T01:37:24;99855.50;;;7.43;100.00
27712;BME280;2377;51.734;8.950;2023-02-12T01:39:53;99846.66;;;7.47;100.00
27712;BME280;2377;51.734;8.950;2023-02-12T01:42:19;99854.56;;;7.44;100.00
27712;BME280;2377;51.734;8.950;2023-02-12T01:48:22;99847.34;;;7.39;100.00
27712;BME280;2377;51.734;8.950;2023-02-12T01:50:53;99852.28;;;7.40;100.00
27712;BME280;2377;51.734;8.950;2023-02-12T01:53:28;99854.44;;;7.35;100.00
27712;BME280;2377;51.734;8.950;2023-02-12T01:56:00;99854.44;;;7.35;100.00
27712;BME280;2377;51.734;8.950;2023-02-12T01:58:33;99848.44;;;7.36;100.00
27712;BME280;2377;51.734;8.950;2023-02-12T02:01:04;99850.31;;;7.34;100.00
27712;BME280;2377;51.734;8.950;2023-02-12T02:03:35;99851.00;;;7.36;100.00
27712;BME280;2377;51.734;8.950;2023-02-12T02:06:09;99852.19;;;7.32;100.00
27712;BME280;2377;51.734;8.950;2023-02-12T02:08:38;99841.47;;;7.38;100.00
27712;BME280;2377;51.734;8.950;2023-02-12T02:11:07;99844.09;;;7.47;100.00
27712;BME280;2377;51.734;8.950;2023-02-12T02:13:48;99833.97;;;7.37;100.00
27712;BME280;2377;51.734;8.950;2023-02-12T02:16:35;99837.84;;;7.41;100.00
27712;BME280;2377;51.734;8.950;2023-02-12T02:19:19;99839.06;;;7.37;100.00
27712;BME280;2377;51.734;8.950;2023-02-12T02:22:25;99840.16;;;7.34;100.00
27712;BME280;2377;51.734;8.950;2023-02-12T02:28:39;99843.63;;;7.33;100.00
27712;BME280;2377;51.734;8.950;2023-02-12T02:31:19;99841.72;;;7.35;100.00
27712;BME280;2377;51.734;8.950;2023-02-12T02:33:57;99836.38;;;7.38;100.00
27712;BME280;2377;51.734;8.950;2023-02-12T02:36:36;99837.19;;;7.39;100.00
27712;BME280;2377;51.734;8.950;2023-02-12T02:39:12;99830.75;;;7.35;100.00
27712;BME280;2377;51.734;8.950;2023-02-12T02:41:47;99838.09;;;7.38;100.00
27712;BME280;2377;51.734;8.950;2023-02-12T02:44:22;99834.47;;;7.40;100.00
27712;BME280;2377;51.734;8.950;2023-02-12T02:46:52;99837.84;;;7.41;100.00
27712;BME280;2377;51.734;8.950;2023-02-12T02:49:25;99829.38;;;7.40;100.00
27712;BME280;2377;51.734;8.950;2023-02-12T02:51:59;99831.94;;;7.40;100.00
27712;BME280;2377;51.734;8.950;2023-02-12T02:54:35;99824.16;;;7.42;100.00
27712;BME280;2377;51.734;8.950;2023-02-12T02:57:10;99825.25;;;7.39;100.00
27712;BME280;2377;51.734;8.950;2023-02-12T02:59:44;99826.22;;;7.38;100.00
27712;BME280;2377;51.734;8.950;2023-02-12T03:02:19;99824.47;;;7.39;100.00
27712;BME280;2377;51.734;8.950;2023-02-12T03:04:51;99821.38;;;7.35;100.00
27712;BME280;2377;51.734;8.950;2023-02-12T03:07:26;99824.59;;;7.37;100.00
27712;BME280;2377;51.734;8.950;2023-02-12T03:10:00;99824.59;;;7.37;100.00
27712;BME280;2377;51.734;8.950;2023-02-12T03:12:36;99816.81;;;7.39;100.00
27712;BME280;2377;51.734;8.950;2023-02-12T03:15:13;99817.63;;;7.39;100.00
27712;BME280;2377;51.734;8.950;2023-02-12T03:17:47;99822.59;;;7.41;100.00
27712;BME280;2377;51.734;8.950;2023-02-12T03:20:20;99825.63;;;7.45;100.00
27712;BME280;2377;51.734;8.950;2023-02-12T03:22:53;99818.00;;;7.45;100.00
27712;BME280;2377;51.734;8.950;2023-02-12T03:25:25;99817.06;;;7.46;100.00
27712;BME280;2377;51.734;8.950;2023-02-12T03:28:05;99818.66;;;7.47;100.00
27712;BME280;2377;51.734;8.950;2023-02-12T03:30:42;99819.88;;;7.43;100.00
27712;BME280;2377;51.734;8.950;2023-02-12T03:33:21;99824.03;;;7.44;100.00
27712;BME280;2377;51.734;8.950;2023-02-12T03:35:58;99817.31;;;7.43;100.00
27712;BME280;2377;51.734;8.950;2023-02-12T03:38:37;99824.69;;;7.46;100.00
27712;BME280;2377;51.734;8.950;2023-02-12T03:41:13;99824.69;;;7.46;100.00
27712;BME280;2377;51.734;8.950;2023-02-12T03:43:51;99826.41;;;7.45;100.00
27712;BME280;2377;51.734;8.950;2023-02-12T03:46:26;99827.38;;;7.44;100.00
27712;BME280;2377;51.734;8.950;2023-02-12T03:49:08;99836.34;;;7.48;100.00
27712;BME280;2377;51.734;8.950;2023-02-12T03:51:39;99832.03;;;7.49;100.00
27712;BME280;2377;51.734;8.950;2023-02-12T03:54:08;99824.41;;;7.49;100.00
27712;BME280;2377;51.734;8.950;2023-02-12T03:56:41;99828.53;;;7.50;100.00
27712;BME280;2377;51.734;8.950;2023-02-12T03:59:10;99828.53;;;7.50;100.00
27712;BME280;2377;51.734;8.950;2023-02-12T04:01:37;99828.53;;;7.50;100.00
27712;BME280;2377;51.734;8.950;2023-02-12T04:04:09;99831.91;;;7.50;100.00
27712;BME280;2377;51.734;8.950;2023-02-12T04:06:36;99837.13;;;7.49;100.00
27712;BME280;2377;51.734;8.950;2023-02-12T04:09:08;99837.13;;;7.49;100.00
27712;BME280;2377;51.734;8.950;2023-02-12T04:11:51;99843.69;;;7.51;100.00
27712;BME280;2377;51.734;8.950;2023-02-12T04:14:33;99844.75;;;7.49;100.00
27712;BME280;2377;51.734;8.950;2023-02-12T04:17:11;99848.09;;;7.49;100.00
27712;BME280;2377;51.734;8.950;2023-02-12T04:19:58;99854.28;;;7.47;100.00
27712;BME280;2377;51.734;8.950;2023-02-12T04:22:44;99863.13;;;7.43;100.00
27712;BME280;2377;51.734;8.950;2023-02-12T04:25:21;99863.41;;;7.39;100.00
27712;BME280;2377;51.734;8.950;2023-02-12T04:27:59;99860.75;;;7.41;100.00
27712;BME280;2377;51.734;8.950;2023-02-12T04:30:37;99869.84;;;7.44;100.00
27712;BME280;2377;51.734;8.950;2023-02-12T04:33:14;99865.00;;;7.40;100.00
27712;BME280;2377;51.734;8.950;2023-02-12T04:35:53;99865.41;;;7.46;100.00
27712;BME280;2377;51.734;8.950;2023-02-12T04:38:27;99872.22;;;7.45;100.00
27712;BME280;2377;51.734;8.950;2023-02-12T04:40:55;99863.38;;;7.49;100.00
27712;BME280;2377;51.734;8.950;2023-02-12T04:43:28;99868.59;;;7.48;100.00
27712;BME280;2377;51.734;8.950;2023-02-12T04:45:55;99875.44;;;7.47;100.00
27712;BME280;2377;51.734;8.950;2023-02-12T04:48:22;99870.63;;;7.44;100.00
27712;BME280;2377;51.734;8.950;2023-02-12T04:50:50;99869.84;;;7.44;100.00
27712;BME280;2377;51.734;8.950;2023-02-12T04:53:17;99866.63;;;7.41;100.00
27712;BME280;2377;51.734;8.950;2023-02-12T04:55:45;99872.63;;;7.40;100.00
27712;BME280;2377;51.734;8.950;2023-02-12T04:58:14;99867.53;;;7.40;100.00
27712;BME280;2377;51.734;8.950;2023-02-12T05:00:41;99870.91;;;7.41;100.00
27712;BME280;2377;51.734;8.950;2023-02-12T05:03:08;99872.63;;;7.40;100.00
27712;BME280;2377;51.734;8.950;2023-02-12T05:05:35;99873.47;;;7.41;100.00
27712;BME280;2377;51.734;8.950;2023-02-12T05:08:03;99883.63;;;7.41;100.00
27712;BME280;2377;51.734;8.950;2023-02-12T05:10:30;99873.88;;;7.36;100.00
27712;BME280;2377;51.734;8.950;2023-02-12T05:12:57;99878.56;;;7.41;100.00
27712;BME280;2377;51.734;8.950;2023-02-12T05:15:24;99875.44;;;7.47;100.00
27712;BME280;2377;51.734;8.950;2023-02-12T05:17:51;99879.84;;;7.45;100.00
27712;BME280;2377;51.734;8.950;2023-02-12T05:20:18;99875.59;;;7.46;100.00
27712;BME280;2377;51.734;8.950;2023-02-12T05:22:45;99885.09;;;7.44;100.00
27712;BME280;2377;51.734;8.950;2023-02-12T05:25:18;99879.34;;;7.41;100.00
27712;BME280;2377;51.734;8.950;2023-02-12T05:27:45;99880.28;;;7.40;100.00
27712;BME280;2377;51.734;8.950;2023-02-12T05:30:13;99882.69;;;7.42;100.00
27712;BME280;2377;51.734;8.950;2023-02-12T05:32:40;99886.56;;;7.46;100.00
27712;BME280;2377;51.734;8.950;2023-02-12T05:35:07;99883.47;;;7.43;100.00
27712;BME280;2377;51.734;8.950;2023-02-12T05:37:35;99884.81;;;7.47;100.00
27712;BME280;2377;51.734;8.950;2023-02-12T05:40:04;99873.03;;;7.46;100.00
27712;BME280;2377;51.734;8.950;2023-02-12T05:42:32;99878.13;;;7.46;100.00
27712;BME280;2377;51.734;8.950;2023-02-12T05:44:59;99878.41;;;7.43;100.00
27712;BME280;2377;51.734;8.950;2023-02-12T05:47:27;99883.47;;;7.43;100.00
27712;BME280;2377;51.734;8.950;2023-02-12T05:49:54;99884.16;;;7.45;100.00
27712;BME280;2377;51.734;8.950;2023-02-12T05:52:21;99880.13;;;7.42;100.00
27712;BME280;2377;51.734;8.950;2023-02-12T05:54:49;99881.09;;;7.41;100.00
27712;BME280;2377;51.734;8.950;2023-02-12T05:57:15;99885.22;;;7.42;100.00
27712;BME280;2377;51.734;8.950;2023-02-12T05:59:44;99885.09;;;7.44;100.00
27712;BME280;2377;51.734;8.950;2023-02-12T06:02:11;99886.97;;;7.41;100.00
27712;BME280;2377;51.734;8.950;2023-02-12T06:04:38;99885.09;;;7.44;100.00
27712;BME280;2377;51.734;8.950;2023-02-12T06:07:05;99884.44;;;7.41;100.00
27712;BME280;2377;51.734;8.950;2023-02-12T06:09:33;99884.44;;;7.41;100.00
27712;BME280;2377;51.734;8.950;2023-02-12T06:12:00;99882.81;;;7.40;100.00
27712;BME280;2377;51.734;8.950;2023-02-12T06:14:28;99884.28;;;7.43;100.00
27712;BME280;2377;51.734;8.950;2023-02-12T06:16:56;99886.69;;;7.45;100.00
27712;BME280;2377;51.734;8.950;2023-02-12T06:19:23;99884.28;;;7.43;100.00
27712;BME280;2377;51.734;8.950;2023-02-12T06:21:50;99888.72;;;7.41;100.00
27712;BME280;2377;51.734;8.950;2023-02-12T06:24:17;99887.78;;;7.42;100.00
27712;BME280;2377;51.734;8.950;2023-02-12T06:26:45;99878.41;;;7.43;100.00
27712;BME280;2377;51.734;8.950;2023-02-12T06:29:14;99884.44;;;7.41;100.00
27712;BME280;2377;51.734;8.950;2023-02-12T06:31:41;99886.03;;;7.43;100.00
27712;BME280;2377;51.734;8.950;2023-02-12T06:34:12;99893.66;;;7.43;100.00
27712;BME280;2377;51.734;8.950;2023-02-12T06:36:43;99898.06;;;7.40;100.00
27712;BME280;2377;51.734;8.950;2023-02-12T06:39:12;99900.63;;;7.40;100.00
27712;BME280;2377;51.734;8.950;2023-02-12T06:41:40;99900.91;;;7.37;100.00
27712;BME280;2377;51.734;8.950;2023-02-12T06:44:07;99902.13;;;7.33;100.00
27712;BME280;2377;51.734;8.950;2023-02-12T06:46:34;99899.31;;;7.36;100.00
27712;BME280;2377;51.734;8.950;2023-02-12T06:49:01;99891.03;;;7.34;100.00
27712;BME280;2377;51.734;8.950;2023-02-12T06:51:29;99901.72;;;7.38;100.00
27712;BME280;2377;51.734;8.950;2023-02-12T06:53:57;99900.25;;;7.35;100.00
27712;BME280;2377;51.734;8.950;2023-02-12T06:56:25;99906.94;;;7.36;100.00
27712;BME280;2377;51.734;8.950;2023-02-12T06:58:56;99913.25;;;7.32;100.00
27712;BME280;2377;51.734;8.950;2023-02-12T07:01:27;99919.94;;;7.33;100.00
27712;BME280;2377;51.734;8.950;2023-02-12T07:03:57;99922.22;;;7.36;100.00
27712;BME280;2377;51.734;8.950;2023-02-12T07:06:26;99933.31;;;7.35;100.00
27712;BME280;2377;51.734;8.950;2023-02-12T07:08:55;99936.66;;;7.36;100.00
27712;BME280;2377;51.734;8.950;2023-02-12T07:11:33;99933.31;;;7.35;100.00
27712;BME280;2377;51.734;8.950;2023-02-12T07:14:00;99945.13;;;7.36;100.00
27712;BME280;2377;51.734;8.950;2023-02-12T07:16:28;99944.03;;;7.39;100.00
27712;BME280;2377;51.734;8.950;2023-02-12T07:18:55;99946.72;;;7.37;100.00
27712;BME280;2377;51.734;8.950;2023-02-12T07:21:22;99943.25;;;7.38;100.00
27712;BME280;2377;51.734;8.950;2023-02-12T07:23:51;99955.53;;;7.33;100.00
27712;BME280;2377;51.734;8.950;2023-02-12T07:26:22;99959.72;;;7.34;100.00
27712;BME280;2377;51.734;8.950;2023-02-12T07:28:51;99961.19;;;7.37;100.00
27712;BME280;2377;51.734;8.950;2023-02-12T07:31:20;99956.59;;;7.40;100.00
27712;BME280;2377;51.734;8.950;2023-02-12T07:33:48;99966.66;;;7.42;100.00
27712;BME280;2377;51.734;8.950;2023-02-12T07:36:19;99970.28;;;7.39;100.00
27712;BME280;2377;51.734;8.950;2023-02-12T07:38:47;99971.22;;;7.38;100.00
27712;BME280;2377;51.734;8.950;2023-02-12T07:41:18;99966.25;;;7.37;100.00
27712;BME280;2377;51.734;8.950;2023-02-12T07:43:52;99965.47;;;7.36;100.00
27712;BME280;2377;51.734;8.950;2023-02-12T07:46:26;99975.66;;;7.36;100.00
27712;BME280;2377;51.734;8.950;2023-02-12T07:48:56;99978.84;;;7.38;100.00
27712;BME280;2377;51.734;8.950;2023-02-12T07:51:24;99973.78;;;7.38;100.00
27712;BME280;2377;51.734;8.950;2023-02-12T07:53:52;99976.44;;;7.37;100.00
27712;BME280;2377;51.734;8.950;2023-02-12T07:56:21;99981.13;;;7.41;100.00
27712;BME280;2377;51.734;8.950;2023-02-12T07:58:52;99982.19;;;7.39;100.00
27712;BME280;2377;51.734;8.950;2023-02-12T08:01:22;99985.53;;;7.39;100.00
27712;BME280;2377;51.734;8.950;2023-02-12T08:03:52;99983.00;;;7.39;100.00
27712;BME280;2377;51.734;8.950;2023-02-12T08:06:23;99990.63;;;7.39;100.00
27712;BME280;2377;51.734;8.950;2023-02-12T08:08:51;99990.63;;;7.39;100.00
27712;BME280;2377;51.734;8.950;2023-02-12T08:11:19;99993.84;;;7.41;100.00
27712;BME280;2377;51.734;8.950;2023-02-12T08:13:46;99994.75;;;7.40;100.00
27712;BME280;2377;51.734;8.950;2023-02-12T08:16:19;100004.13;;;7.40;100.00
27712;BME280;2377;51.734;8.950;2023-02-12T08:18:47;99994.91;;;7.39;100.00
27712;BME280;2377;51.734;8.950;2023-02-12T08:21:17;99997.31;;;7.40;100.00
27712;BME280;2377;51.734;8.950;2023-02-12T08:23:44;99998.94;;;7.41;100.00
27712;BME280;2377;51.734;8.950;2023-02-12T08:26:17;99999.06;;;7.40;100.00
27712;BME280;2377;51.734;8.950;2023-02-12T08:28:48;99998.38;;;7.38;100.00
27712;BME280;2377;51.734;8.950;2023-02-12T08:31:20;100001.75;;;7.38;100.00
27712;BME280;2377;51.734;8.950;2023-02-12T08:33:49;99997.47;;;7.39;100.00
27712;BME280;2377;51.734;8.950;2023-02-12T08:36:19;100006.84;;;7.38;100.00
27712;BME280;2377;51.734;8.950;2023-02-12T08:38:47;100008.72;;;7.36;100.00
27712;BME280;2377;51.734;8.950;2023-02-12T08:41:18;100006.16;;;7.36;100.00
27712;BME280;2377;51.734;8.950;2023-02-12T08:43:45;100004.31;;;7.38;100.00
27712;BME280;2377;51.734;8.950;2023-02-12T08:46:17;100006.00;;;7.38;100.00
27712;BME280;2377;51.734;8.950;2023-02-12T08:48:45;100015.94;;;7.41;100.00
27712;BME280;2377;51.734;8.950;2023-02-12T08:51:15;100014.88;;;7.44;100.00
27712;BME280;2377;51.734;8.950;2023-02-12T08:53:45;100013.25;;;7.43;100.00
27712;BME280;2377;51.734;8.950;2023-02-12T08:56:16;100008.03;;;7.44;100.00
27712;BME280;2377;51.734;8.950;2023-02-12T08:58:44;100012.03;;;7.47;100.00
27712;BME280;2377;51.734;8.950;2023-02-12T09:01:15;100013.63;;;7.48;100.00
27712;BME280;2377;51.734;8.950;2023-02-12T09:03:45;100013.50;;;7.49;100.00
27712;BME280;2377;51.734;8.950;2023-02-12T09:06:13;100013.63;;;7.48;100.00
27712;BME280;2377;51.734;8.950;2023-02-12T09:08:44;100020.34;;;7.49;100.00
27712;BME280;2377;51.734;8.950;2023-02-12T09:11:15;100020.22;;;7.50;100.00
27712;BME280;2377;51.734;8.950;2023-02-12T09:13:43;100026.47;;;7.56;100.00
27712;BME280;2377;51.734;8.950;2023-02-12T09:16:12;100023.81;;;7.57;100.00
27712;BME280;2377;51.734;8.950;2023-02-12T09:18:40;100029.41;;;7.61;100.00
27712;BME280;2377;51.734;8.950;2023-02-12T09:21:12;100022.72;;;7.60;100.00
27712;BME280;2377;51.734;8.950;2023-02-12T09:23:42;100021.66;;;7.62;100.00
27712;BME280;2377;51.734;8.950;2023-02-12T09:26:12;100025.66;;;7.65;100.00
27712;BME280;2377;51.734;8.950;2023-02-12T09:28:41;100028.88;;;7.67;100.00
27712;BME280;2377;51.734;8.950;2023-02-12T09:31:12;100030.47;;;7.68;100.00
27712;BME280;2377;51.734;8.950;2023-02-12T09:33:40;100027.91;;;7.68;100.00
27712;BME280;2377;51.734;8.950;2023-02-12T09:36:12;100027.91;;;7.68;100.00
27712;BME280;2377;51.734;8.950;2023-02-12T09:38:41;100034.63;;;7.69;100.00
27712;BME280;2377;51.734;8.950;2023-02-12T09:41:43;100033.41;;;7.73;100.00
27712;BME280;2377;51.734;8.950;2023-02-12T09:44:21;100041.03;;;7.73;100.00
27712;BME280;2377;51.734;8.950;2023-02-12T09:46:58;100039.44;;;7.72;100.00
27712;BME280;2377;51.734;8.950;2023-02-12T09:49:55;100033.94;;;7.77;100.00
27712;BME280;2377;51.734;8.950;2023-02-12T09:52:27;100035.28;;;7.81;100.00
27712;BME280;2377;51.734;8.950;2023-02-12T09:54:56;100043.56;;;7.83;100.00
27712;BME280;2377;51.734;8.950;2023-02-12T09:57:26;100037.66;;;7.82;100.00
27712;BME280;2377;51.734;8.950;2023-02-12T10:00:00;100040.88;;;7.84;100.00
27712;BME280;2377;51.734;8.950;2023-02-12T10:02:28;100038.19;;;7.86;100.00
27712;BME280;2377;51.734;8.950;2023-02-12T10:04:57;100042.09;;;7.90;100.00
27712;BME280;2377;51.734;8.950;2023-02-12T10:07:51;100034.44;;;7.90;100.00
27712;BME280;2377;51.734;8.950;2023-02-12T10:10:38;100031.75;;;7.92;100.00
27712;BME280;2377;51.734;8.950;2023-02-12T10:13:19;100025.56;;;7.94;100.00
27712;BME280;2377;51.734;8.950;2023-02-12T10:15:56;100029.06;;;7.93;100.00
27712;BME280;2377;51.734;8.950;2023-02-12T10:19:08;100028.25;;;7.93;100.00
27712;BME280;2377;51.734;8.950;2023-02-12T10:21:55;100027.03;;;7.97;100.00
27712;BME280;2377;51.734;8.950;2023-02-12T10:24:48;100033.44;;;8.01;100.00
27712;BME280;2377;51.734;8.950;2023-02-12T10:27:37;100039.72;;;8.07;100.00
27712;BME280;2377;51.734;8.950;2023-02-12T10:52:35;100023.94;;;8.31;100.00
27712;BME280;2377;51.734;8.950;2023-02-12T10:55:25;100027.00;;;8.34;100.00
27712;BME280;2377;51.734;8.950;2023-02-12T10:57:53;100023.94;;;8.31;100.00
27712;BME280;2377;51.734;8.950;2023-02-12T11:00:29;100024.03;;;8.39;100.00
27712;BME280;2377;51.734;8.950;2023-02-12T11:03:05;100031.81;;;8.37;100.00
27712;BME280;2377;51.734;8.950;2023-02-12T11:05:44;100023.34;;;8.37;100.00
27712;BME280;2377;51.734;8.950;2023-02-12T11:08:30;100020.56;;;8.40;100.00
27712;BME280;2377;51.734;8.950;2023-02-12T11:11:09;100018.41;;;8.45;100.00
27712;BME280;2377;51.734;8.950;2023-02-12T11:13:40;100025.75;;;8.48;100.00
27712;BME280;2377;51.734;8.950;2023-02-12T11:16:10;100020.78;;;8.46;100.00
27712;BME280;2377;51.734;8.950;2023-02-12T11:18:39;100015.41;;;8.50;100.00
27712;BME280;2377;51.734;8.950;2023-02-12T11:21:08;100010.59;;;8.46;100.00
27712;BME280;2377;51.734;8.950;2023-02-12T11:23:40;100008.56;;;8.50;100.00
27712;BME280;2377;51.734;8.950;2023-02-12T11:26:26;100004.13;;;8.52;100.00
27712;BME280;2377;51.734;8.950;2023-02-12T11:28:56;100002.75;;;8.58;100.00
27712;BME280;2377;51.734;8.950;2023-02-12T11:31:26;100008.13;;;8.55;100.00
27712;BME280;2377;51.734;8.950;2023-02-12T11:34:14;100008.00;;;8.56;100.00
27712;BME280;2377;51.734;8.950;2023-02-12T11:36:43;100014.19;;;8.54;100.00
27712;BME280;2377;51.734;8.950;2023-02-12T11:39:20;100004.00;;;8.54;100.00
27712;BME280;2377;51.734;8.950;2023-02-12T11:41:52;100008.00;;;8.56;100.00
27712;BME280;2377;51.734;8.950;2023-02-12T11:44:24;100012.44;;;8.54;100.00
27712;BME280;2377;51.734;8.950;2023-02-12T11:46:57;100014.81;;;8.56;100.00
27712;BME280;2377;51.734;8.950;2023-02-12T11:53:22;100003.59;;;8.49;100.00
27712;BME280;2377;51.734;8.950;2023-02-12T11:55:59;100004.56;;;8.48;100.00
27712;BME280;2377;51.734;8.950;2023-02-12T11:58:28;100012.69;;;8.51;100.00
27712;BME280;2377;51.734;8.950;2023-02-12T12:01:07;100008.56;;;8.50;100.00
27712;BME280;2377;51.734;8.950;2023-02-12T12:03:44;100011.13;;;8.50;100.00
27712;BME280;2377;51.734;8.950;2023-02-12T12:06:25;100013.44;;;8.43;100.00
27712;BME280;2377;51.734;8.950;2023-02-12T12:09:02;100013.59;;;8.42;100.00
27712;BME280;2377;51.734;8.950;2023-02-12T12:11:42;100009.53;;;8.49;100.00
27712;BME280;2377;51.734;8.950;2023-02-12T12:14:21;100006.81;;;8.51;100.00
27712;BME280;2377;51.734;8.950;2023-02-12T12:16:55;100010.81;;;8.53;100.00
27712;BME280;2377;51.734;8.950;2023-02-12T12:20:02;100000.91;;;8.50;100.00
27712;BME280;2377;51.734;8.950;2023-02-12T12:22:43;100002.50;;;8.51;100.00
27712;BME280;2377;51.734;8.950;2023-02-12T12:25:23;100002.25;;;8.54;100.00
27712;BME280;2377;51.734;8.950;2023-02-12T12:28:04;99997.63;;;8.58;100.00
27712;BME280;2377;51.734;8.950;2023-02-12T12:30:51;100001.94;;;8.57;100.00
27712;BME280;2377;51.734;8.950;2023-02-12T12:33:31;100001.66;;;8.60;100.00
27712;BME280;2377;51.734;8.950;2023-02-12T12:36:30;99996.28;;;8.63;100.00
27712;BME280;2377;51.734;8.950;2023-02-12T12:39:09;99989.00;;;8.68;100.00
27712;BME280;2377;51.734;8.950;2023-02-12T12:41:57;99988.38;;;8.75;100.00
27712;BME280;2377;51.734;8.950;2023-02-12T12:44:48;99995.13;;;8.76;100.00
27712;BME280;2377;51.734;8.950;2023-02-12T12:47:26;99989.22;;;8.75;100.00
27712;BME280;2377;51.734;8.950;2023-02-12T12:50:21;99983.28;;;8.75;100.00
27712;BME280;2377;51.734;8.950;2023-02-12T12:53:27;99982.13;;;8.69;100.00
27712;BME280;2377;51.734;8.950;2023-02-12T12:56:13;99978.78;;;8.68;100.00
27712;BME280;2377;51.734;8.950;2023-02-12T12:59:14;99983.09;;;8.68;100.00
27712;BME280;2377;51.734;8.950;2023-02-12T13:02:11;99978.00;;;8.68;100.00
27712;BME280;2377;51.734;8.950;2023-02-12T13:05:07;99970.63;;;8.65;100.00
27712;BME280;2377;51.734;8.950;2023-02-12T13:07:56;99973.16;;;8.65;100.00
27712;BME280;2377;51.734;8.950;2023-02-12T13:10:36;99961.75;;;8.69;100.00
27712;BME280;2377;51.734;8.950;2023-02-12T13:13:28;99964.16;;;8.71;100.00
27712;BME280;2377;51.734;8.950;2023-02-12T13:16:08;99964.16;;;8.71;100.00
27712;BME280;2377;51.734;8.950;2023-02-12T13:18:51;99965.59;;;8.73;100.00
27712;BME280;2377;51.734;8.950;2023-02-12T13:21:36;99962.88;;;8.75;100.00
27712;BME280;2377;51.734;8.950;2023-02-12T13:24:21;99959.09;;;8.79;100.00
27712;BME280;2377;51.734;8.950;2023-02-12T13:26:56;99963.56;;;8.77;100.00
27712;BME280;2377;51.734;8.950;2023-02-12T13:29:28;99958.31;;;8.78;100.00
27712;BME280;2377;51.734;8.950;2023-02-12T13:32:04;99955.63;;;8.80;100.00
27712;BME280;2377;51.734;8.950;2023-02-12T13:34:35;99956.28;;;8.82;100.00
27712;BME280;2377;51.734;8.950;2023-02-12T13:37:09;99952.13;;;8.81;100.00
27712;BME280;2377;51.734;8.950;2023-02-12T13:39:45;99955.31;;;8.83;100.00
27712;BME280;2377;51.734;8.950;2023-02-12T13:42:28;99967.13;;;8.84;100.00
27712;BME280;2377;51.734;8.950;2023-02-12T13:45:15;99959.63;;;8.82;100.00
27712;BME280;2377;51.734;8.950;2023-02-12T13:48:04;99952.13;;;8.81;100.00
27712;BME280;2377;51.734;8.950;2023-02-12T13:50:41;99957.34;;;8.79;100.00
27712;BME280;2377;51.734;8.950;2023-02-12T13:53:19;99958.97;;;8.80;100.00
27712;BME280;2377;51.734;8.950;2023-02-12T13:56:06;99963.28;;;8.80;100.00
27712;BME280;2377;51.734;8.950;2023-02-12T13:58:46;99955.63;;;8.80;100.00
27712;BME280;2377;51.734;8.950;2023-02-12T14:01:41;99961.00;;;8.77;100.00
27712;BME280;2377;51.734;8.950;2023-02-12T14:04:29;99955.91;;;8.77;100.00
27712;BME280;2377;51.734;8.950;2023-02-12T14:07:02;99954.31;;;8.76;100.00
27712;BME280;2377;51.734;8.950;2023-02-12T14:09:38;99948.13;;;8.78;100.00
27712;BME280;2377;51.734;8.950;2023-02-12T14:12:09;99956.56;;;8.79;100.00
27712;BME280;2377;51.734;8.950;2023-02-12T14:14:42;99949.88;;;8.78;100.00